Time;durP1;ratioP1;P1;durP2;ratioP2;P2;SDS_P1;SDS_P2;PMS_P1;PMS_P2;Temp;Humidity;BMP_temperature;BMP_pressure;BME280_temperature;BME280_humidity;BME280_pressure;Samples;Min_cycle;Max_cycle;Signal;HPM_P1;HPM_P2
2022/09/23 00:08:48;;;;;;;0.52;0.40;;;20.30;48.70;;;;;;20737126;28;20109;-75
2022/09/23 00:18:49;;;;;;;1.42;0.60;;;20.30;48.60;;;;;;20736539;28;20041;-76
2022/09/23 00:28:50;;;;;;;0.40;0.30;;;20.20;48.60;;;;;;20736313;28;20117;-76
2022/09/23 00:38:51;;;;;;;2.05;0.50;;;20.20;48.60;;;;;;20751832;28;20444;-75
2022/09/23 00:49:03;;;;;;;0.97;0.50;;;20.20;48.70;;;;;;20735315;28;20030;-75
2022/09/23 00:59:04;;;;;;;0.85;0.50;;;20.10;48.70;;;;;;20668994;28;20862;-75
2022/09/23 01:09:04;;;;;;;0.30;0.20;;;20.10;48.70;;;;;;20668115;28;20543;-75
2022/09/23 01:19:26;;;;;;;0.30;0.28;;;20.10;48.70;;;;;;20647656;28;20057;-76
2022/09/23 01:30:03;;;;;;;0.95;0.43;;;20.10;48.70;;;;;;20666399;28;20046;-75
2022/09/23 01:40:22;;;;;;;0.90;0.50;;;20.00;48.70;;;;;;21045271;23;20045;-85
2022/09/23 02:00:58;;;;;;;0.20;0.20;;;20.00;48.80;;;;;;20798073;28;20030;-84
2022/09/23 02:11:06;;;;;;;0.55;0.30;;;19.90;48.90;;;;;;20711449;28;20022;-83
2022/09/23 02:21:07;;;;;;;0.40;0.35;;;19.90;48.90;;;;;;20726763;28;20092;-84
2022/09/23 02:31:10;;;;;;;0.77;0.30;;;19.90;49.00;;;;;;20726762;28;20034;-86
2022/09/23 02:41:50;;;;;;;0.55;0.43;;;19.90;49.00;;;;;;20725461;28;20041;-84
2022/09/23 02:51:51;;;;;;;0.45;0.35;;;19.90;49.10;;;;;;20800693;28;20041;-85
2022/09/23 03:02:03;;;;;;;0.83;0.33;;;19.90;49.20;;;;;;20763443;28;20136;-84
2022/09/23 03:12:34;;;;;;;0.30;0.30;;;19.80;49.20;;;;;;20727168;28;20289;-84
2022/09/23 03:22:48;;;;;;;0.43;0.32;;;19.80;49.30;;;;;;20749196;28;20065;-85
2022/09/23 03:32:50;;;;;;;0.40;0.40;;;19.80;49.40;;;;;;20739298;28;20029;-84
2022/09/23 03:42:54;;;;;;;0.50;0.40;;;19.80;49.40;;;;;;20766601;28;20048;-84
2022/09/23 03:52:55;;;;;;;0.45;0.40;;;19.70;49.50;;;;;;20818230;28;20033;-84
2022/09/23 04:02:56;;;;;;;0.73;0.30;;;19.70;49.50;;;;;;20735680;28;20486;-84
2022/09/23 04:12:57;;;;;;;1.38;0.50;;;19.70;49.50;;;;;;20749971;28;20639;-79
2022/09/23 04:22:57;;;;;;;0.50;0.30;;;19.70;49.50;;;;;;20747960;28;20050;-76
2022/09/23 04:32:58;;;;;;;1.13;0.40;;;19.70;49.60;;;;;;20745318;28;20156;-78
2022/09/23 04:43:00;;;;;;;0.55;0.43;;;19.60;49.60;;;;;;20762659;28;20037;-78
2022/09/23 04:53:01;;;;;;;0.60;0.38;;;19.60;49.60;;;;;;20731255;28;20432;-73
2022/09/23 05:03:02;;;;;;;0.38;0.30;;;19.60;49.70;;;;;;20714772;28;20050;-80
2022/09/23 05:13:02;;;;;;;0.38;0.30;;;19.60;49.70;;;;;;20722995;28;20076;-82
2022/09/23 05:23:03;;;;;;;0.82;0.50;;;19.60;49.70;;;;;;20743450;28;20133;-78
2022/09/23 05:33:04;;;;;;;0.98;0.38;;;19.50;49.70;;;;;;20739404;28;20021;-78
2022/09/23 05:43:04;;;;;;;0.80;0.30;;;19.50;49.70;;;;;;20778177;28;20049;-78
2022/09/23 05:53:05;;;;;;;1.27;0.65;;;19.50;49.70;;;;;;20740971;28;20046;-78
2022/09/23 06:03:12;;;;;;;1.38;0.40;;;19.50;49.70;;;;;;20741747;28;20120;-78
2022/09/23 06:13:14;;;;;;;0.73;0.40;;;19.40;49.70;;;;;;20708195;28;20045;-77
2022/09/23 06:23:15;;;;;;;1.90;0.43;;;19.40;49.70;;;;;;20701130;28;20045;-78
2022/09/23 06:33:15;;;;;;;0.63;0.45;;;19.40;49.80;;;;;;20766365;28;20117;-78
2022/09/23 06:43:16;;;;;;;0.93;0.50;;;19.40;49.80;;;;;;20721665;28;20033;-79
2022/09/23 06:53:17;;;;;;;0.80;0.50;;;19.40;49.80;;;;;;20723811;28;20369;-78
2022/09/23 07:03:17;;;;;;;0.98;0.40;;;19.40;49.90;;;;;;20719702;28;20069;-79
2022/09/23 07:13:18;;;;;;;1.20;0.57;;;19.40;49.90;;;;;;20752682;28;20034;-79
2022/09/23 07:23:18;;;;;;;1.38;0.50;;;19.40;50.00;;;;;;20718087;28;20125;-79
2022/09/23 07:33:19;;;;;;;0.40;0.30;;;19.40;50.10;;;;;;20769924;28;20038;-79
2022/09/23 07:43:20;;;;;;;0.52;0.40;;;19.30;50.70;;;;;;20750354;28;20034;-79
2022/09/23 07:53:20;;;;;;;1.27;0.45;;;19.30;50.10;;;;;;20733540;28;20121;-79
2022/09/23 08:03:21;;;;;;;1.40;0.57;;;19.30;50.20;;;;;;20748564;28;20033;-78
2022/09/23 08:13:21;;;;;;;0.80;0.30;;;19.30;50.20;;;;;;20710698;28;20076;-78
2022/09/23 08:23:22;;;;;;;0.52;0.20;;;19.30;50.30;;;;;;20770562;28;20057;-78
2022/09/23 08:33:23;;;;;;;1.30;0.50;;;19.30;50.30;;;;;;20827289;28;20384;-79
2022/09/23 08:43:28;;;;;;;1.35;0.40;;;19.40;50.40;;;;;;20718812;28;20052;-78
2022/09/23 08:53:36;;;;;;;1.63;0.50;;;19.40;50.30;;;;;;20731425;28;20076;-83
2022/09/23 09:03:56;;;;;;;0.73;0.57;;;19.40;50.20;;;;;;20712619;28;20659;-80
2022/09/23 09:14:24;;;;;;;0.60;0.32;;;19.50;50.20;;;;;;20706219;28;20091;-79
2022/09/23 09:24:33;;;;;;;0.60;0.30;;;19.60;50.00;;;;;;20717370;28;20065;-79
2022/09/23 09:34:40;;;;;;;1.05;0.52;;;19.60;49.90;;;;;;20726804;28;20038;-79
2022/09/23 09:44:54;;;;;;;0.35;0.30;;;19.70;49.80;;;;;;20724994;28;20177;-79
2022/09/23 09:54:58;;;;;;;0.75;0.43;;;19.80;49.50;;;;;;20709482;28;20034;-79
2022/09/23 10:05:00;;;;;;;0.43;0.40;;;20.00;49.30;;;;;;20723997;28;20120;-83
2022/09/23 10:15:01;;;;;;;1.95;0.43;;;20.10;49.60;;;;;;20728606;28;20364;-78
2022/09/23 10:25:06;;;;;;;0.50;0.30;;;20.30;48.80;;;;;;20804837;28;20042;-83
2022/09/23 10:35:12;;;;;;;1.03;0.40;;;20.40;48.50;;;;;;20745129;28;20070;-75
2022/09/23 10:55:59;;;;;;;0.73;0.30;;;20.70;47.90;;;;;;20754750;28;20034;-75
2022/09/23 11:06:24;;;;;;;0.93;0.45;;;20.80;47.60;;;;;;20753928;28;20042;-77
2022/09/23 11:16:37;;;;;;;0.80;0.47;;;21.00;47.20;;;;;;20780802;28;20484;-77
2022/09/23 11:26:55;;;;;;;2.50;1.35;;;21.20;46.80;;;;;;20743902;28;20472;-78
2022/09/23 11:37:02;;;;;;;1.02;0.70;;;21.40;46.40;;;;;;20718758;28;20042;-78
2022/09/23 11:47:06;;;;;;;0.80;0.65;;;21.50;46.10;;;;;;20738032;28;20041;-79
2022/09/23 11:57:10;;;;;;;1.63;0.73;;;21.70;45.90;;;;;;20751200;28;20110;-77
2022/09/23 12:07:16;;;;;;;0.85;0.70;;;21.80;45.70;;;;;;20745655;28;20472;-80
2022/09/23 12:17:26;;;;;;;1.75;0.60;;;21.80;45.50;;;;;;20813444;28;20032;-75
2022/09/23 12:27:29;;;;;;;4.72;0.70;;;22.00;45.90;;;;;;20744498;28;20404;-79
2022/09/23 12:37:34;;;;;;;2.00;0.60;;;22.10;45.00;;;;;;20716433;28;20049;-80
2022/09/23 12:47:38;;;;;;;1.85;0.90;;;22.20;44.90;;;;;;20714195;28;20092;-78
2022/09/23 12:57:39;;;;;;;1.23;0.43;;;22.30;44.80;;;;;;20711694;28;20032;-78
2022/09/23 13:07:44;;;;;;;0.82;0.65;;;22.40;44.80;;;;;;20794237;28;20037;-78
2022/09/23 13:17:44;;;;;;;1.03;0.60;;;22.50;44.60;;;;;;20770593;28;20030;-78
2022/09/23 13:27:46;;;;;;;2.05;0.75;;;22.50;44.50;;;;;;20739335;28;20136;-79
2022/09/23 13:37:47;;;;;;;2.20;0.80;;;22.60;44.40;;;;;;20796534;28;20073;-79
2022/09/23 13:47:48;;;;;;;3.10;0.57;;;22.70;44.40;;;;;;20707615;28;20443;-80
2022/09/23 13:57:56;;;;;;;1.03;0.50;;;22.70;44.30;;;;;;20748899;28;20042;-84
2022/09/23 14:07:56;;;;;;;1.85;0.93;;;22.70;44.20;;;;;;20724360;28;20297;-80
2022/09/23 14:18:03;;;;;;;0.85;0.57;;;22.70;44.20;;;;;;20739712;28;20101;-78
2022/09/23 14:28:04;;;;;;;1.83;0.70;;;22.70;44.20;;;;;;20738417;28;20046;-76
2022/09/23 14:48:25;;;;;;;0.55;0.47;;;22.70;44.20;;;;;;20738690;28;20041;-74
2022/09/23 14:58:27;;;;;;;2.83;1.80;;;22.70;44.30;;;;;;20720785;28;20096;-76
2022/09/23 15:08:27;;;;;;;13.25;4.88;;;22.70;44.50;;;;;;20721769;28;20045;-76
2022/09/23 15:18:32;;;;;;;17.38;7.18;;;22.70;45.10;;;;;;20729332;28;20038;-77
2022/09/23 15:28:33;;;;;;;17.60;5.95;;;22.90;45.20;;;;;;20727783;28;20431;-76
2022/09/23 15:38:34;;;;;;;23.55;5.60;;;23.00;45.30;;;;;;20734262;28;20042;-76
2022/09/23 15:48:42;;;;;;;20.52;4.70;;;23.00;45.40;;;;;;20734449;28;20042;-76
2022/09/23 15:58:43;;;;;;;21.83;4.57;;;22.80;45.50;;;;;;20781328;28;20037;-79
2022/09/23 16:08:43;;;;;;;10.70;3.83;;;22.80;45.60;;;;;;20709397;28;20399;-81
2022/09/23 16:18:44;;;;;;;8.87;3.40;;;22.70;45.80;;;;;;20732742;28;20041;-76
2022/09/23 16:28:45;;;;;;;7.32;3.10;;;22.70;46.00;;;;;;20725507;28;20307;-78
2022/09/23 16:38:46;;;;;;;7.85;3.60;;;22.70;46.00;;;;;;20723414;28;20112;-77
2022/09/23 16:48:48;;;;;;;6.68;2.60;;;22.60;46.20;;;;;;20724291;28;20046;-75
2022/09/23 16:58:49;;;;;;;6.00;2.83;;;22.50;46.10;;;;;;20729435;28;20045;-76
2022/09/23 17:08:50;;;;;;;3.92;1.92;;;22.50;46.20;;;;;;20727823;28;20034;-77
2022/09/23 17:18:50;;;;;;;5.65;1.60;;;22.40;46.20;;;;;;20745574;28;20116;-78
2022/09/23 17:28:53;;;;;;;5.47;1.77;;;22.40;46.40;;;;;;20718694;28;20060;-76
2022/09/23 17:38:53;;;;;;;3.55;1.70;;;22.40;46.60;;;;;;20723470;28;20292;-75
2022/09/23 17:48:55;;;;;;;2.45;1.40;;;22.30;46.60;;;;;;20792943;28;20037;-75
2022/09/23 17:59:00;;;;;;;3.63;1.33;;;22.30;46.70;;;;;;20785786;28;20104;-76
2022/09/23 18:09:02;;;;;;;2.10;1.35;;;22.20;46.70;;;;;;20739367;28;20038;-76
2022/09/23 18:19:03;;;;;;;2.38;1.17;;;22.20;46.80;;;;;;20723324;28;20030;-77
2022/09/23 18:29:04;;;;;;;2.47;1.30;;;22.20;46.90;;;;;;20746926;28;20076;-76
2022/09/23 18:39:05;;;;;;;3.97;1.20;;;22.10;46.90;;;;;;20720717;28;20042;-77
2022/09/23 18:59:28;;;;;;;1.77;1.02;;;22.10;47.10;;;;;;20762743;28;20038;-75
2022/09/23 19:09:29;;;;;;;2.28;0.93;;;22.10;47.20;;;;;;20725757;28;20127;-77
2022/09/23 19:19:30;;;;;;;1.88;1.23;;;22.00;47.20;;;;;;20750851;28;20121;-76
2022/09/23 19:29:32;;;;;;;1.35;0.98;;;22.00;47.30;;;;;;20760130;28;20040;-75
2022/09/23 19:39:33;;;;;;;2.17;1.02;;;22.00;47.40;;;;;;20798232;28;20061;-76
2022/09/23 19:49:34;;;;;;;1.90;1.20;;;22.00;47.40;;;;;;20730545;28;20025;-75
2022/09/23 19:59:34;;;;;;;1.80;1.10;;;21.90;47.40;;;;;;20732035;28;20176;-76
2022/09/23 20:09:35;;;;;;;1.20;0.90;;;21.90;47.50;;;;;;20766138;28;20041;-75
2022/09/23 20:19:36;;;;;;;3.35;1.00;;;21.90;47.60;;;;;;20748557;28;20388;-76
2022/09/23 20:29:36;;;;;;;1.38;1.00;;;21.90;47.70;;;;;;20731185;28;20531;-75
2022/09/23 20:39:37;;;;;;;1.10;0.90;;;21.90;47.70;;;;;;20795131;28;20124;-75
2022/09/23 20:49:41;;;;;;;1.38;0.90;;;21.90;47.90;;;;;;20746187;28;20145;-75
2022/09/23 20:59:42;;;;;;;1.83;1.25;;;21.80;47.90;;;;;;20746352;28;20040;-75
2022/09/23 21:09:42;;;;;;;1.98;1.10;;;21.80;48.00;;;;;;20745861;28;20041;-75
2022/09/23 21:19:43;;;;;;;1.63;1.15;;;21.70;48.10;;;;;;20725987;28;20076;-75
2022/09/23 21:29:43;;;;;;;1.25;1.10;;;21.70;48.10;;;;;;20717762;28;20034;-76
2022/09/23 21:40:54;;;;;;;2.38;0.93;;;21.70;48.20;;;;;;20725801;28;20068;-75
2022/09/23 21:50:05;;;;;;;2.88;1.30;;;21.70;48.30;;;;;;20721689;28;20129;-74
2022/09/23 22:00:07;;;;;;;2.03;1.25;;;21.70;48.40;;;;;;20740863;28;20049;-74
2022/09/23 22:10:08;;;;;;;1.25;0.70;;;21.60;48.40;;;;;;20742152;28;20180;-74
2022/09/23 22:20:08;;;;;;;1.42;1.00;;;21.60;48.50;;;;;;20741254;28;20440;-74
2022/09/23 22:40:28;;;;;;;1.88;1.23;;;21.60;48.70;;;;;;20823655;28;20042;-76
2022/09/23 22:50:29;;;;;;;2.13;1.25;;;21.50;48.70;;;;;;20749825;28;20048;-76
2022/09/23 23:00:29;;;;;;;1.55;1.10;;;21.50;48.80;;;;;;20764321;28;20392;-76
2022/09/23 23:10:30;;;;;;;1.30;1.00;;;21.50;48.90;;;;;;20748236;28;20057;-76
2022/09/23 23:20:31;;;;;;;2.78;1.65;;;21.40;49.00;;;;;;20773721;28;20030;-76
2022/09/23 23:30:33;;;;;;;1.90;1.00;;;21.50;49.10;;;;;;20838787;28;20038;-76
2022/09/23 23:40:36;;;;;;;3.33;1.13;;;21.40;49.20;;;;;;20766201;28;20300;-75
2022/09/23 23:50:36;;;;;;;2.65;1.10;;;21.40;49.20;;;;;;20750577;28;20045;-76
